Aeroporto :
LOGIN :

Iscrizione | Disclaimer

   EN    FR    IT 

 










Sommario :    VFR   VFR Marginale   IFR   IFR Intensivo   IFR Molto Intensivo
Visibilità : 
Base nubi : 
>= 8 km
>= 3000ft
5 / 8 km
1000 / 3000 ft
1500m / 5 km
500 / 1000 ft
800 / 1500m
200 / 500 ft
< 800m
< 200 ft
Simboli :   Temporali  Nebbia  Neve Forte  Precipitazioni Forti  Vento > 20 kt
SIGMETs :   Varie  Temporali  Ghiacco  Turbolenza  Onda orograficha  Ceneri Vulcaniche






- Altitudine del aeroporto : 313 ft
- Codice IATA : LEH


LFOH - Le Havre Octeville

ULTIMO METAR :
  • 231530Z AUTO 11007KT 9000 OVC011 03/01 Q1033 NOSIG

METARs OBSOLETI :
  • 231500Z AUTO 11006KT 8000 OVC010 03/01 Q1033 NOSIG
  • 231430Z AUTO 12007KT 090V150 8000 OVC011 03/01 Q1033 NOSIG
  • 231400Z AUTO 14007KT 100V180 9000 OVC011 04/01 Q1033 TEMPO OVC007
  • 231330Z AUTO 12007KT 090V150 9000 OVC011 04/01 Q1034 TEMPO OVC007
  • 231300Z AUTO 11007KT 9000 OVC010 04/02 Q1034 NOSIG

TAF TAF LFOH
Valido dal 23 a 12 ore il 24 a 12 ore UTC


231100Z 2312/2412 12005KT 8000 OVC007
BECMG 2315/2318 OVC012
PROB30
TEMPO 2402/2405 OVC007
BECMG 2405/2407 NSC
ATIS : +33 2 35 54 64 93



MetMap, La meteo Aeronautica in un colpo d'occhio ! - Copyright ORBIFLY Dicembre 2007 - Disclaimer

ORBIFLY MET'MAP TEAM :

Programmazione e sviluppo : Alexandra Zaïnal
Concezione : Baudouin d'Aumeries
Aiuto per la programmazione : Marc-Olivier Méhu
Supporto tecnico e logistico : Manuel Goepfert
Aiuto per la traduzione : Arnaldo La Scala

Contatto : metmap@orbifly.com




FONTI E CREDITI :

   NOAA